Time;durP1;ratioP1;P1;durP2;ratioP2;P2;SDS_P1;SDS_P2;PMS_P1;PMS_P2;Temp;Humidity;BMP_temperature;BMP_pressure;BME280_temperature;BME280_humidity;BME280_pressure;Samples;Min_cycle;Max_cycle;Signal;HPM_P1;HPM_P2
2021/07/09 00:01:35;;;;;;;;;5.50;5.25;;;;;-144.77;100.00;61770.03;4997407;28;8743;-85
2021/07/09 00:04:01;;;;;;;;;5.25;5.25;;;;;-144.77;100.00;61770.03;4978353;28;8968;-85
2021/07/09 00:06:26;;;;;;;;;4.75;4.75;;;;;-144.77;100.00;61770.03;4996708;28;8916;-85
2021/07/09 00:08:52;;;;;;;;;4.75;4.75;;;;;-144.77;100.00;61770.03;4997386;28;8810;-84
2021/07/09 00:11:18;;;;;;;;;3.75;3.75;;;;;-144.77;100.00;61770.03;4997677;28;8821;-85
2021/07/09 00:13:44;;;;;;;;;4.25;3.75;;;;;-144.77;100.00;61770.03;4996776;28;8802;-85
2021/07/09 00:16:11;;;;;;;;;4.25;3.50;;;;;-144.77;100.00;61770.03;4997228;28;8817;-85
2021/07/09 00:18:37;;;;;;;;;5.25;3.25;;;;;-144.77;100.00;61770.03;4996847;28;8810;-85
2021/07/09 00:21:02;;;;;;;;;5.25;4.00;;;;;-144.77;100.00;61770.03;4997117;28;8835;-85
2021/07/09 00:23:28;;;;;;;;;4.50;4.50;;;;;-144.77;100.00;61770.03;4995705;28;9603;-85
2021/07/09 00:25:54;;;;;;;;;5.50;4.00;;;;;-144.77;100.00;61770.03;4997315;28;8806;-85
2021/07/09 00:28:19;;;;;;;;;5.00;5.00;;;;;-144.77;100.00;61770.03;4979051;28;8956;-85
2021/07/09 00:30:45;;;;;;;;;5.75;4.50;;;;;-144.77;100.00;61770.03;5003445;28;8835;-85
2021/07/09 00:33:10;;;;;;;;;4.00;4.00;;;;;-144.77;100.00;61770.03;4997162;28;8846;-85
2021/07/09 00:35:36;;;;;;;;;7.25;4.25;;;;;-144.77;100.00;61770.03;4976477;28;8853;-85
2021/07/09 00:38:02;;;;;;;;;6.00;4.00;;;;;-144.77;100.00;61770.03;4997157;28;8818;-85
2021/07/09 00:40:27;;;;;;;;;3.00;3.00;;;;;-144.77;100.00;61770.03;4996752;28;8888;-85
2021/07/09 00:42:53;;;;;;;;;6.75;4.00;;;;;-144.77;100.00;61770.03;4996876;28;8813;-85
2021/07/09 00:45:19;;;;;;;;;6.25;4.00;;;;;-144.77;100.00;61770.03;4993202;28;8802;-85
2021/07/09 00:47:47;;;;;;;;;5.00;4.50;;;;;-144.77;100.00;61770.03;4960260;28;8853;-85
2021/07/09 00:50:13;;;;;;;;;5.75;4.50;;;;;-144.77;100.00;61770.03;4993745;28;8809;-85
2021/07/09 00:52:39;;;;;;;;;4.25;4.25;;;;;-144.77;100.00;61770.03;4978819;28;8834;-85
2021/07/09 00:55:06;;;;;;;;;3.50;3.50;;;;;-144.77;100.00;61770.03;4996760;28;8884;-85
2021/07/09 00:57:32;;;;;;;;;4.50;3.00;;;;;-144.77;100.00;61770.03;4995147;28;8824;-85
2021/07/09 00:59:58;;;;;;;;;5.25;4.00;;;;;-144.77;100.00;61770.03;4996432;28;8836;-85
2021/07/09 01:02:23;;;;;;;;;4.50;3.75;;;;;-144.77;100.00;61770.03;4996299;28;8821;-85
2021/07/09 01:04:56;;;;;;;;;7.00;4.75;;;;;-144.77;100.00;61770.03;4996447;28;8868;-85
2021/07/09 01:07:23;;;;;;;;;5.75;4.75;;;;;-144.77;100.00;61770.03;4984778;28;8796;-85
2021/07/09 01:09:48;;;;;;;;;7.00;5.00;;;;;-144.77;100.00;61770.03;4979103;28;8817;-85
2021/07/09 01:12:14;;;;;;;;;4.50;4.50;;;;;-144.77;100.00;61770.03;4996347;28;8821;-85
2021/07/09 01:14:40;;;;;;;;;5.00;3.50;;;;;-144.77;100.00;61770.03;4996263;28;8840;-85
2021/07/09 01:17:06;;;;;;;;;4.00;4.00;;;;;-144.77;100.00;61770.03;4996177;28;8915;-85
2021/07/09 01:19:31;;;;;;;;;4.75;4.50;;;;;-144.77;100.00;61770.03;4996556;28;8960;-85
2021/07/09 01:21:57;;;;;;;;;5.75;4.50;;;;;-144.77;100.00;61770.03;4978305;28;8918;-85
2021/07/09 01:24:23;;;;;;;;;4.75;4.50;;;;;-144.77;100.00;61770.03;4994154;28;8860;-85
2021/07/09 01:26:48;;;;;;;;;3.75;3.75;;;;;-144.77;100.00;61770.03;4996154;28;8879;-86
2021/07/09 01:29:14;;;;;;;;;8.25;5.25;;;;;-144.77;100.00;61770.03;4996208;28;8813;-85
2021/07/09 01:31:42;;;;;;;;;6.75;6.25;;;;;-144.77;100.00;61770.03;4996104;28;8829;-85
2021/07/09 01:34:07;;;;;;;;;4.75;4.00;;;;;-144.77;100.00;61770.03;4978633;28;8817;-85
2021/07/09 01:36:33;;;;;;;;;7.00;5.00;;;;;-144.77;100.00;61770.03;4996225;28;8950;-85
2021/07/09 01:38:59;;;;;;;;;6.00;3.75;;;;;-144.77;100.00;61770.03;4996285;28;8779;-85
2021/07/09 01:41:25;;;;;;;;;6.50;6.00;;;;;-144.77;100.00;61770.03;4978454;28;8889;-85
2021/07/09 01:43:51;;;;;;;;;6.00;6.00;;;;;-144.77;100.00;61770.03;4978366;28;8742;-85
2021/07/09 01:46:17;;;;;;;;;5.75;5.00;;;;;-144.77;100.00;61770.03;4996051;28;9549;-86
2021/07/09 01:48:42;;;;;;;;;4.50;3.75;;;;;-144.77;100.00;61770.03;4994065;28;9518;-85
2021/07/09 01:51:08;;;;;;;;;7.00;6.00;;;;;-144.77;100.00;61770.03;4978181;28;8892;-85
2021/07/09 01:53:33;;;;;;;;;5.50;5.25;;;;;-144.77;100.00;61770.03;4996267;28;8805;-85
2021/07/09 01:55:59;;;;;;;;;6.00;6.00;;;;;-144.77;100.00;61770.03;4996287;28;8909;-85
2021/07/09 01:58:25;;;;;;;;;9.50;5.75;;;;;-144.77;100.00;61770.03;4996079;28;8802;-85
2021/07/09 02:00:51;;;;;;;;;7.00;5.75;;;;;-144.77;100.00;61770.03;4978428;28;8841;-85
2021/07/09 02:03:17;;;;;;;;;6.50;5.75;;;;;-144.77;100.00;61770.03;4995484;28;8817;-85
2021/07/09 02:05:43;;;;;;;;;5.75;5.00;;;;;-144.77;100.00;61770.03;4978196;28;9732;-85
2021/07/09 02:08:09;;;;;;;;;5.75;5.00;;;;;-144.77;100.00;61770.03;4991748;28;8792;-84
2021/07/09 02:10:39;;;;;;;;;5.75;5.75;;;;;-144.77;100.00;61770.03;4967574;28;8868;-84
2021/07/09 02:13:05;;;;;;;;;6.25;5.00;;;;;-144.77;100.00;61770.03;4992599;28;8856;-84
2021/07/09 02:15:35;;;;;;;;;6.00;5.00;;;;;-144.77;100.00;61770.03;4995635;28;8803;-85
2021/07/09 02:18:00;;;;;;;;;6.00;5.25;;;;;-144.77;100.00;61770.03;4995844;28;8803;-85
2021/07/09 02:20:27;;;;;;;;;11.00;6.75;;;;;-144.77;100.00;61770.03;4994413;28;8889;-84
2021/07/09 02:23:01;;;;;;;;;5.50;5.50;;;;;-144.77;100.00;61770.03;4994556;28;8831;-84
2021/07/09 02:25:27;;;;;;;;;8.00;6.00;;;;;-144.77;100.00;61770.03;4990491;28;8817;-84
2021/07/09 02:27:55;;;;;;;;;6.50;6.25;;;;;-144.77;100.00;61770.03;4990374;28;8810;-84
2021/07/09 02:30:23;;;;;;;;;5.00;4.50;;;;;-144.77;100.00;61770.03;4996704;28;8809;-85
2021/07/09 02:32:49;;;;;;;;;7.00;6.75;;;;;-144.77;100.00;61770.03;4998753;28;8763;-85
2021/07/09 02:35:18;;;;;;;;;10.00;7.00;;;;;-144.77;100.00;61770.03;4997419;28;8924;-85
2021/07/09 02:37:47;;;;;;;;;9.00;8.00;;;;;-144.77;100.00;61770.03;4998780;28;8792;-85
2021/07/09 02:40:15;;;;;;;;;8.25;6.75;;;;;-144.77;100.00;61770.03;4998594;28;8813;-85
2021/07/09 02:42:43;;;;;;;;;5.50;5.50;;;;;-144.77;100.00;61770.03;4996898;28;8853;-84
2021/07/09 02:45:12;;;;;;;;;6.50;6.50;;;;;-144.77;100.00;61770.03;4997438;28;8827;-84
2021/07/09 02:47:39;;;;;;;;;7.00;6.25;;;;;-144.77;100.00;61770.03;4998709;28;8814;-85
2021/07/09 02:50:08;;;;;;;;;7.00;6.50;;;;;-144.77;100.00;61770.03;4997225;28;8846;-85
2021/07/09 02:52:34;;;;;;;;;8.75;6.50;;;;;-144.77;100.00;61770.03;5003076;28;8819;-85
2021/07/09 02:54:59;;;;;;;;;7.75;6.75;;;;;-144.77;100.00;61770.03;5001182;28;8933;-85
2021/07/09 02:57:25;;;;;;;;;7.75;7.75;;;;;-144.77;100.00;61770.03;4998247;28;8854;-88
2021/07/09 02:59:50;;;;;;;;;10.00;6.50;;;;;-144.77;100.00;61770.03;5004012;28;8905;-88
2021/07/09 03:02:16;;;;;;;;;6.00;6.00;;;;;-144.77;100.00;61770.03;4998636;28;8866;-88
2021/07/09 03:04:41;;;;;;;;;7.25;6.50;;;;;-144.77;100.00;61770.03;4997659;28;8885;-85
2021/07/09 03:07:07;;;;;;;;;7.25;6.75;;;;;-144.77;100.00;61770.03;4998163;28;9638;-83
2021/07/09 03:09:32;;;;;;;;;6.50;6.50;;;;;-144.77;100.00;61770.03;4998485;28;8803;-85
2021/07/09 03:11:58;;;;;;;;;9.25;9.25;;;;;-144.77;100.00;61770.03;4998501;28;8862;-85
2021/07/09 03:14:23;;;;;;;;;8.50;8.50;;;;;-144.77;100.00;61770.03;4997913;28;8829;-85
2021/07/09 03:16:49;;;;;;;;;9.25;5.75;;;;;-144.77;100.00;61770.03;4998510;28;8826;-85
2021/07/09 03:19:15;;;;;;;;;6.00;6.00;;;;;-144.77;100.00;61770.03;4998284;28;8825;-84
2021/07/09 03:21:41;;;;;;;;;7.75;6.75;;;;;-144.77;100.00;61770.03;4998052;28;9853;-85
2021/07/09 03:24:07;;;;;;;;;9.00;9.00;;;;;-144.77;100.00;61770.03;4998140;28;8818;-85
2021/07/09 03:26:33;;;;;;;;;8.25;6.50;;;;;-144.77;100.00;61770.03;4977472;28;9022;-85
2021/07/09 03:28:59;;;;;;;;;11.25;7.25;;;;;-144.77;100.00;61770.03;4997285;28;8778;-84
2021/07/09 03:31:29;;;;;;;;;11.00;9.00;;;;;-144.77;100.00;61770.03;4998219;28;8836;-85
2021/07/09 03:33:55;;;;;;;;;10.00;9.00;;;;;-144.77;100.00;61770.03;4980526;28;8790;-84
2021/07/09 03:36:20;;;;;;;;;9.25;8.50;;;;;-144.77;100.00;61770.03;4980533;28;8856;-84
2021/07/09 03:38:47;;;;;;;;;8.00;7.25;;;;;-144.77;100.00;61770.03;4998080;28;8969;-84
2021/07/09 03:41:12;;;;;;;;;7.50;7.50;;;;;-144.77;100.00;61770.03;4997102;28;8801;-84
2021/07/09 03:43:38;;;;;;;;;9.00;9.00;;;;;-144.77;100.00;61770.03;4977310;28;8862;-84
2021/07/09 03:46:03;;;;;;;;;7.75;7.00;;;;;-144.77;100.00;61770.03;4991987;28;8790;-84
2021/07/09 03:48:30;;;;;;;;;8.00;7.75;;;;;-144.77;100.00;61770.03;4998134;28;8853;-84
2021/07/09 03:50:55;;;;;;;;;8.00;8.00;;;;;-144.77;100.00;61770.03;4997794;28;8746;-84
2021/07/09 03:53:21;;;;;;;;;8.25;7.50;;;;;-144.77;100.00;61770.03;4998094;28;9648;-84
2021/07/09 03:55:46;;;;;;;;;8.75;6.75;;;;;-144.77;100.00;61770.03;4998032;28;8937;-84
2021/07/09 03:58:12;;;;;;;;;7.25;7.00;;;;;-144.77;100.00;61770.03;4977009;28;8860;-84
2021/07/09 04:00:37;;;;;;;;;8.75;7.25;;;;;-144.77;100.00;61770.03;4990086;28;8830;-84
2021/07/09 04:03:03;;;;;;;;;10.25;9.75;;;;;-144.77;100.00;61770.03;4997922;28;8841;-84
2021/07/09 04:05:29;;;;;;;;;9.50;8.25;;;;;-144.77;100.00;61770.03;4984459;28;8834;-84
2021/07/09 04:07:54;;;;;;;;;10.50;9.00;;;;;-144.77;100.00;61770.03;4997887;28;8916;-84
2021/07/09 04:10:20;;;;;;;;;10.00;10.00;;;;;-144.77;100.00;61770.03;4997606;28;8814;-84
2021/07/09 04:12:46;;;;;;;;;10.75;8.75;;;;;-144.77;100.00;61770.03;4979712;28;8842;-84
2021/07/09 04:15:12;;;;;;;;;7.75;7.50;;;;;-144.77;100.00;61770.03;4997276;28;8831;-85
2021/07/09 04:17:38;;;;;;;;;10.00;8.00;;;;;-144.77;100.00;61770.03;4997802;28;9206;-84
2021/07/09 04:20:04;;;;;;;;;9.75;9.75;;;;;-144.77;100.00;61770.03;4997542;28;8818;-84
2021/07/09 04:22:29;;;;;;;;;10.25;10.25;;;;;-144.77;100.00;61770.03;4997145;28;8750;-84
2021/07/09 04:24:55;;;;;;;;;9.75;9.75;;;;;-144.77;100.00;61770.03;4984809;28;9610;-84
2021/07/09 04:27:20;;;;;;;;;13.25;11.25;;;;;-144.77;100.00;61770.03;4997423;28;8821;-85
2021/07/09 04:29:46;;;;;;;;;10.75;9.00;;;;;-144.77;100.00;61770.03;4997318;28;8844;-85
2021/07/09 04:32:13;;;;;;;;;10.00;10.00;;;;;-144.77;100.00;61770.03;4997358;28;8794;-85
2021/07/09 04:34:39;;;;;;;;;15.25;11.75;;;;;-144.77;100.00;61770.03;4997221;28;8801;-85
2021/07/09 04:37:08;;;;;;;;;13.00;11.00;;;;;-144.77;100.00;61770.03;4997174;28;8790;-85
2021/07/09 04:39:38;;;;;;;;;9.75;9.25;;;;;-144.77;100.00;61770.03;4997095;28;8805;-84
2021/07/09 04:42:05;;;;;;;;;11.75;11.25;;;;;-144.77;100.00;61770.03;4997242;28;8901;-84
2021/07/09 04:44:31;;;;;;;;;11.00;10.00;;;;;-144.77;100.00;61770.03;4975445;28;8828;-85
2021/07/09 04:46:57;;;;;;;;;13.00;10.00;;;;;-144.77;100.00;61770.03;4988085;28;8883;-84
2021/07/09 04:49:22;;;;;;;;;9.00;9.00;;;;;-144.77;100.00;61770.03;4996901;28;8924;-85
2021/07/09 04:51:48;;;;;;;;;9.25;8.50;;;;;-144.77;100.00;61770.03;4996456;28;8825;-85
2021/07/09 04:54:13;;;;;;;;;12.75;10.25;;;;;-144.77;100.00;61770.03;4996690;28;9047;-85
2021/07/09 04:56:39;;;;;;;;;10.25;9.00;;;;;-144.77;100.00;61770.03;4996893;28;8840;-84
2021/07/09 04:59:04;;;;;;;;;11.00;11.00;;;;;-144.77;100.00;61770.03;4978877;28;8873;-85
2021/07/09 05:01:30;;;;;;;;;10.50;9.75;;;;;-144.77;100.00;61770.03;4996810;28;9625;-84
2021/07/09 05:03:55;;;;;;;;;12.25;10.75;;;;;-144.77;100.00;61770.03;4994342;28;8846;-85
2021/07/09 05:06:21;;;;;;;;;10.00;10.00;;;;;-144.77;100.00;61770.03;4986107;28;8888;-85
2021/07/09 05:08:47;;;;;;;;;12.75;9.00;;;;;-144.77;100.00;61770.03;4996747;28;9743;-85
2021/07/09 05:11:12;;;;;;;;;12.25;11.00;;;;;-144.77;100.00;61770.03;4975855;28;8847;-85
2021/07/09 05:13:39;;;;;;;;;14.00;11.00;;;;;-144.77;100.00;61770.03;4975482;28;8873;-85
2021/07/09 05:16:07;;;;;;;;;9.75;9.75;;;;;-144.77;100.00;61770.03;5001826;28;9815;-85
2021/07/09 05:18:33;;;;;;;;;10.00;9.25;;;;;-144.77;100.00;61770.03;5011612;28;9249;-85
2021/07/09 05:21:02;;;;;;;;;12.75;9.25;;;;;-144.77;100.00;61770.03;4996128;28;8882;-85
2021/07/09 05:23:28;;;;;;;;;12.75;10.75;;;;;-144.77;100.00;61770.03;4981282;28;8747;-84
2021/07/09 05:25:54;;;;;;;;;8.50;7.75;;;;;-144.77;100.00;61770.03;4996630;28;9582;-85
2021/07/09 05:28:20;;;;;;;;;9.75;7.25;;;;;-144.77;100.00;61770.03;4996309;28;8904;-85
2021/07/09 05:30:46;;;;;;;;;11.75;11.25;;;;;-144.77;100.00;61770.03;4996402;28;8827;-84
2021/07/09 05:33:15;;;;;;;;;11.75;10.75;;;;;-144.77;100.00;61770.03;4995078;28;9770;-85
2021/07/09 05:35:43;;;;;;;;;10.00;7.75;;;;;-144.77;100.00;61770.03;4996297;28;8818;-85
2021/07/09 05:38:08;;;;;;;;;8.50;8.50;;;;;-144.77;100.00;61770.03;4990236;28;8793;-85
2021/07/09 05:40:34;;;;;;;;;10.75;9.75;;;;;-144.77;100.00;61770.03;4987080;28;8826;-85
2021/07/09 05:43:01;;;;;;;;;11.50;10.50;;;;;-144.77;100.00;61770.03;4996157;28;8806;-85
2021/07/09 05:45:27;;;;;;;;;13.25;12.25;;;;;-144.77;100.00;61770.03;4996354;28;8933;-85
2021/07/09 05:47:53;;;;;;;;;13.25;12.25;;;;;-144.77;100.00;61770.03;4994852;28;8874;-86
2021/07/09 05:50:18;;;;;;;;;11.75;11.00;;;;;-144.77;100.00;61770.03;4995935;28;9571;-86
2021/07/09 05:52:44;;;;;;;;;12.50;10.25;;;;;-144.77;100.00;61770.03;5011150;28;8835;-85
2021/07/09 05:55:09;;;;;;;;;10.25;10.25;;;;;-144.77;100.00;61770.03;4996124;28;8872;-86
2021/07/09 05:57:35;;;;;;;;;11.50;9.50;;;;;-144.77;100.00;61770.03;4996019;28;8819;-86
2021/07/09 06:00:00;;;;;;;;;12.75;10.50;;;;;-144.77;100.00;61770.03;4996169;28;8901;-87
2021/07/09 06:02:26;;;;;;;;;11.25;8.50;;;;;-144.77;100.00;61770.03;4988854;28;8813;-88
2021/07/09 06:04:51;;;;;;;;;9.50;9.00;;;;;-144.77;100.00;61770.03;5006753;28;8834;-86
2021/07/09 06:07:17;;;;;;;;;12.00;8.00;;;;;-144.77;100.00;61770.03;4999283;28;8830;-86
2021/07/09 06:09:42;;;;;;;;;11.25;10.50;;;;;-144.77;100.00;61770.03;4999592;28;8929;-84
2021/07/09 06:12:08;;;;;;;;;9.75;9.75;;;;;-144.77;100.00;61770.03;4999150;28;8849;-85
2021/07/09 06:14:34;;;;;;;;;8.75;7.75;;;;;-144.77;100.00;61770.03;4999006;28;8918;-85
2021/07/09 06:16:59;;;;;;;;;9.00;8.50;;;;;-144.77;100.00;61770.03;4978425;28;8847;-84
2021/07/09 06:19:25;;;;;;;;;10.75;8.25;;;;;-144.77;100.00;61770.03;4988408;28;8834;-85
2021/07/09 06:21:50;;;;;;;;;10.50;9.75;;;;;-144.77;100.00;61770.03;4998787;28;8802;-87
2021/07/09 06:24:17;;;;;;;;;10.25;7.75;;;;;-144.77;100.00;61770.03;4989640;28;8847;-86
2021/07/09 06:26:42;;;;;;;;;11.25;11.00;;;;;-144.77;100.00;61770.03;4995999;28;8806;-86
2021/07/09 06:29:09;;;;;;;;;10.25;9.75;;;;;-144.77;100.00;61770.03;4981488;28;8903;-84
2021/07/09 06:31:34;;;;;;;;;12.00;9.25;;;;;-144.77;100.00;61770.03;4999022;28;8851;-85
2021/07/09 06:34:00;;;;;;;;;9.00;9.00;;;;;-144.77;100.00;61770.03;4999202;28;8814;-86
2021/07/09 06:36:25;;;;;;;;;9.75;9.75;;;;;-144.77;100.00;61770.03;4998786;28;8838;-87
2021/07/09 06:38:51;;;;;;;;;8.50;8.50;;;;;-144.77;100.00;61770.03;4999241;28;8937;-86
2021/07/09 06:41:16;;;;;;;;;10.00;8.25;;;;;-144.77;100.00;61770.03;4998992;28;8794;-84
2021/07/09 06:43:42;;;;;;;;;19.00;13.00;;;;;-144.77;100.00;61770.03;4999058;28;8814;-90
2021/07/09 06:46:08;;;;;;;;;13.50;9.75;;;;;-144.77;100.00;61770.03;4998998;28;8742;-88
2021/07/09 06:48:34;;;;;;;;;9.75;9.75;;;;;-144.77;100.00;61770.03;4998908;28;8836;-88
2021/07/09 06:50:59;;;;;;;;;10.25;9.50;;;;;-144.77;100.00;61770.03;4998472;28;8829;-88
2021/07/09 06:53:25;;;;;;;;;14.00;9.75;;;;;-144.77;100.00;61770.03;4998840;28;9542;-87
2021/07/09 06:55:50;;;;;;;;;10.75;10.00;;;;;-144.77;100.00;61770.03;4998709;28;8852;-88
2021/07/09 06:58:16;;;;;;;;;10.00;8.25;;;;;-144.77;100.00;61770.03;4998791;28;8850;-88
2021/07/09 07:00:41;;;;;;;;;17.50;13.00;;;;;-144.77;100.00;61770.03;4998522;28;8786;-88
2021/07/09 07:03:07;;;;;;;;;11.25;9.75;;;;;-144.77;100.00;61770.03;4998716;28;8801;-87
2021/07/09 07:05:32;;;;;;;;;13.25;11.25;;;;;-144.77;100.00;61770.03;4998281;28;8889;-88
2021/07/09 07:08:18;;;;;;;;;9.75;9.75;;;;;-144.77;100.00;61770.03;4998769;28;8815;-87
2021/07/09 07:10:45;;;;;;;;;13.50;13.50;;;;;-144.77;100.00;61770.03;4998432;28;8778;-87
2021/07/09 07:13:11;;;;;;;;;10.00;10.00;;;;;-144.77;100.00;61770.03;4998145;28;8789;-88
2021/07/09 07:15:37;;;;;;;;;13.00;12.25;;;;;-144.77;100.00;61770.03;4997967;28;8790;-88
2021/07/09 07:18:08;;;;;;;;;10.50;9.00;;;;;-144.77;100.00;61770.03;4998581;28;8805;-88
2021/07/09 07:20:37;;;;;;;;;11.00;10.50;;;;;-144.77;100.00;61770.03;4997921;28;8861;-87
2021/07/09 07:23:03;;;;;;;;;13.00;11.00;;;;;-144.77;100.00;61770.03;4980820;28;8829;-88
2021/07/09 07:25:29;;;;;;;;;13.75;12.00;;;;;-144.77;100.00;61770.03;4998290;28;8814;-88
2021/07/09 07:27:54;;;;;;;;;10.00;9.25;;;;;-144.77;100.00;61770.03;4998388;28;8809;-90
2021/07/09 07:30:20;;;;;;;;;12.25;12.25;;;;;-144.77;100.00;61770.03;4974263;28;8856;-88
2021/07/09 07:32:48;;;;;;;;;12.50;10.25;;;;;-144.77;100.00;61770.03;4991717;28;8939;-88
2021/07/09 07:35:13;;;;;;;;;11.75;9.50;;;;;-144.77;100.00;61770.03;4977225;28;8827;-88
2021/07/09 07:37:40;;;;;;;;;9.00;9.00;;;;;-144.77;100.00;61770.03;4992114;28;8920;-88
2021/07/09 07:40:07;;;;;;;;;11.25;11.00;;;;;-144.77;100.00;61770.03;4998360;28;8786;-88
2021/07/09 07:42:32;;;;;;;;;16.75;12.00;;;;;-144.77;100.00;61770.03;4998078;28;8766;-88
2021/07/09 07:44:58;;;;;;;;;11.50;9.25;;;;;-144.77;100.00;61770.03;4998260;28;8821;-85
2021/07/09 07:47:23;;;;;;;;;15.75;11.50;;;;;-144.77;100.00;61770.03;4997844;28;8816;-86
2021/07/09 07:49:49;;;;;;;;;12.25;12.00;;;;;-144.77;100.00;61770.03;4998291;28;8817;-85
2021/07/09 07:52:15;;;;;;;;;11.00;11.00;;;;;-144.77;100.00;61770.03;4997475;28;8826;-84
2021/07/09 07:54:40;;;;;;;;;13.25;11.25;;;;;-144.77;100.00;61770.03;4998056;28;8806;-84
2021/07/09 07:57:06;;;;;;;;;12.50;10.75;;;;;-144.77;100.00;61770.03;4997739;28;8822;-84
2021/07/09 07:59:31;;;;;;;;;15.50;13.00;;;;;-144.77;100.00;61770.03;4997782;28;8809;-84
2021/07/09 08:01:57;;;;;;;;;12.75;12.50;;;;;-144.77;100.00;61770.03;4997720;28;8922;-84
2021/07/09 08:04:23;;;;;;;;;11.25;11.25;;;;;-144.77;100.00;61770.03;4980084;28;8945;-85
2021/07/09 08:06:48;;;;;;;;;13.25;10.25;;;;;-144.77;100.00;61770.03;4997470;28;9576;-85
2021/07/09 08:09:14;;;;;;;;;10.50;9.00;;;;;-144.77;100.00;61770.03;4997736;28;8806;-84
2021/07/09 08:11:39;;;;;;;;;9.50;9.50;;;;;-144.77;100.00;61770.03;4997550;28;8829;-85
2021/07/09 08:14:05;;;;;;;;;13.75;12.00;;;;;-144.77;100.00;61770.03;4997148;28;8821;-85
2021/07/09 08:16:31;;;;;;;;;14.50;11.00;;;;;-144.77;100.00;61770.03;4996273;28;8848;-84
2021/07/09 08:18:57;;;;;;;;;10.75;9.50;;;;;-144.77;100.00;61770.03;4997507;28;8924;-85
2021/07/09 08:21:22;;;;;;;;;10.00;10.00;;;;;-144.77;100.00;61770.03;4997135;28;8870;-85
2021/07/09 08:23:48;;;;;;;;;11.50;10.50;;;;;-144.77;100.00;61770.03;4991373;28;8808;-85
2021/07/09 08:26:13;;;;;;;;;10.50;9.00;;;;;-144.77;100.00;61770.03;4972630;28;8876;-85
2021/07/09 08:28:39;;;;;;;;;12.25;10.00;;;;;-144.77;100.00;61770.03;4997438;28;9593;-86
2021/07/09 08:31:06;;;;;;;;;10.75;10.00;;;;;-144.77;100.00;61770.03;4997132;28;9636;-84
2021/07/09 08:33:31;;;;;;;;;10.25;9.75;;;;;-144.77;100.00;61770.03;4997450;28;8790;-84
2021/07/09 08:35:57;;;;;;;;;11.50;8.75;;;;;-144.77;100.00;61770.03;4996817;28;8824;-83
2021/07/09 08:38:23;;;;;;;;;9.75;9.50;;;;;-144.77;100.00;61770.03;4997672;28;8797;-84
2021/07/09 08:40:49;;;;;;;;;10.00;10.00;;;;;-144.77;100.00;61770.03;4997305;28;8911;-77
2021/07/09 08:43:14;;;;;;;;;9.50;9.00;;;;;-144.77;100.00;61770.03;4997156;28;8820;-81
2021/07/09 08:45:40;;;;;;;;;7.75;7.75;;;;;-144.77;100.00;61770.03;4997105;28;8789;-81
2021/07/09 08:48:09;;;;;;;;;10.50;9.50;;;;;-144.77;100.00;61770.03;4977535;28;8836;-80
2021/07/09 08:50:34;;;;;;;;;11.25;9.50;;;;;-144.77;100.00;61770.03;4996191;28;8790;-80
2021/07/09 08:53:00;;;;;;;;;12.50;9.75;;;;;-144.77;100.00;61770.03;4996562;28;8908;-80
2021/07/09 08:55:25;;;;;;;;;10.25;8.00;;;;;-144.77;100.00;61770.03;4996694;28;8846;-80
2021/07/09 08:57:51;;;;;;;;;13.25;10.75;;;;;-144.77;100.00;61770.03;4975688;28;8867;-81
2021/07/09 09:00:32;;;;;;;;;8.50;8.00;;;;;-144.77;100.00;61770.03;4990576;28;8890;-78
2021/07/09 09:02:58;;;;;;;;;8.00;8.00;;;;;-144.77;100.00;61770.03;4995747;28;8802;-79
2021/07/09 09:05:26;;;;;;;;;6.75;4.50;;;;;-144.77;100.00;61770.03;4996550;28;9755;-78
2021/07/09 09:07:59;;;;;;;;;10.75;10.00;;;;;-144.77;100.00;61770.03;4976171;28;8811;-78
2021/07/09 09:10:42;;;;;;;;;10.00;7.25;;;;;-144.77;100.00;61770.03;4992723;28;9746;-78
2021/07/09 09:13:12;;;;;;;;;8.25;7.00;;;;;-144.77;100.00;61770.03;4994031;28;8806;-78
2021/07/09 09:15:39;;;;;;;;;12.50;7.00;;;;;-144.77;100.00;61770.03;4995454;28;8786;-78
2021/07/09 09:18:22;;;;;;;;;8.25;6.25;;;;;-144.77;100.00;61770.03;4996900;28;8824;-79
2021/07/09 09:20:58;;;;;;;;;6.75;6.75;;;;;-144.77;100.00;61770.03;4985005;28;8816;-79
2021/07/09 09:23:24;;;;;;;;;9.25;8.00;;;;;-144.77;100.00;61770.03;4992563;28;8798;-79
2021/07/09 09:25:50;;;;;;;;;8.25;6.50;;;;;-144.77;100.00;61770.03;4969361;28;8825;-79
2021/07/09 09:28:16;;;;;;;;;6.50;6.00;;;;;-144.77;100.00;61770.03;4996298;28;8852;-79
2021/07/09 09:30:43;;;;;;;;;6.75;6.00;;;;;-144.77;100.00;61770.03;4996426;28;8793;-79
2021/07/09 09:33:11;;;;;;;;;5.00;5.00;;;;;-144.77;100.00;61770.03;4996286;28;8785;-79
2021/07/09 09:35:47;;;;;;;;;6.25;6.00;;;;;-144.77;100.00;61770.03;4996205;28;8742;-79
2021/07/09 09:38:15;;;;;;;;;6.50;6.50;;;;;-144.77;100.00;61770.03;4979224;28;9877;-79
2021/07/09 09:40:43;;;;;;;;;8.50;7.25;;;;;-144.77;100.00;61770.03;4999790;28;8812;-78
2021/07/09 09:43:14;;;;;;;;;8.00;6.00;;;;;-144.77;100.00;61770.03;4999661;28;8892;-79
2021/07/09 09:45:41;;;;;;;;;11.25;7.00;;;;;-144.77;100.00;61770.03;4999675;28;8809;-79
2021/07/09 09:48:10;;;;;;;;;8.50;7.25;;;;;-144.77;100.00;61770.03;5000019;28;8766;-78
2021/07/09 09:50:50;;;;;;;;;10.00;8.25;;;;;-144.77;100.00;61770.03;4999542;28;8790;-78
2021/07/09 09:53:30;;;;;;;;;11.25;9.00;;;;;-144.77;100.00;61770.03;4982264;28;8794;-79
2021/07/09 09:56:05;;;;;;;;;11.75;8.25;;;;;-144.77;100.00;61770.03;4999579;28;8774;-79
2021/07/09 09:58:30;;;;;;;;;8.75;7.00;;;;;-144.77;100.00;61770.03;4999687;28;8863;-79
2021/07/09 10:00:56;;;;;;;;;8.75;8.00;;;;;-144.77;100.00;61770.03;4999573;28;8825;-79
2021/07/09 10:03:22;;;;;;;;;8.00;6.50;;;;;-144.77;100.00;61770.03;4999331;28;8805;-78
2021/07/09 10:05:49;;;;;;;;;8.75;7.25;;;;;-144.77;100.00;61770.03;4999114;28;8802;-78
2021/07/09 10:08:20;;;;;;;;;6.00;6.00;;;;;-144.77;100.00;61770.03;4999521;28;8773;-79
2021/07/09 10:10:47;;;;;;;;;10.50;8.25;;;;;-144.77;100.00;61770.03;4999321;28;8793;-79
2021/07/09 10:13:22;;;;;;;;;7.50;6.00;;;;;-144.77;100.00;61770.03;4998999;28;8794;-79
2021/07/09 10:15:48;;;;;;;;;5.75;5.75;;;;;-144.77;100.00;61770.03;4993649;28;8790;-79
2021/07/09 10:18:19;;;;;;;;;5.75;4.00;;;;;-144.77;100.00;61770.03;4999300;28;8916;-79
2021/07/09 10:20:47;;;;;;;;;10.50;8.00;;;;;-144.77;100.00;61770.03;4998856;28;8764;-80
2021/07/09 10:23:19;;;;;;;;;7.75;7.00;;;;;-144.77;100.00;61770.03;4997755;28;8873;-80
2021/07/09 10:25:47;;;;;;;;;5.75;5.50;;;;;-144.77;100.00;61770.03;4989444;28;8801;-81
2021/07/09 10:28:20;;;;;;;;;7.00;7.00;;;;;-144.77;100.00;61770.03;4999126;28;8818;-80
2021/07/09 10:30:46;;;;;;;;;7.00;6.00;;;;;-144.77;100.00;61770.03;4999265;28;9660;-80
2021/07/09 10:33:32;;;;;;;;;6.00;6.00;;;;;-144.77;100.00;61770.03;4999133;28;8822;-80
2021/07/09 10:36:04;;;;;;;;;7.50;6.75;;;;;-144.77;100.00;61770.03;4999076;28;8746;-80
2021/07/09 10:38:38;;;;;;;;;7.00;7.00;;;;;-144.77;100.00;61770.03;4999357;28;8731;-80
2021/07/09 10:41:19;;;;;;;;;6.00;6.00;;;;;-144.77;100.00;61770.03;4999038;28;8871;-80
2021/07/09 10:44:23;;;;;;;;;7.00;6.00;;;;;-144.77;100.00;61770.03;4978153;28;8744;-80
2021/07/09 10:46:48;;;;;;;;;7.75;6.50;;;;;-144.77;100.00;61770.03;4910244;29;9903;-80
2021/07/09 10:49:59;;;;;;;;;7.00;6.75;;;;;-144.77;100.00;61770.03;4887440;29;8884;-80
2021/07/09 10:52:57;;;;;;;;;5.50;5.50;;;;;-144.77;100.00;61770.03;4962636;28;8820;-80
2021/07/09 10:55:26;;;;;;;;;7.50;7.00;;;;;-144.77;100.00;61770.03;4998469;28;8830;-80
2021/07/09 10:58:07;;;;;;;;;6.50;6.25;;;;;-144.77;100.00;61770.03;4998743;28;8928;-80
2021/07/09 11:01:09;;;;;;;;;7.00;6.25;;;;;-144.77;100.00;61770.03;4998682;28;8746;-80
2021/07/09 11:03:41;;;;;;;;;7.25;5.25;;;;;-144.77;100.00;61770.03;4991751;28;8822;-80
2021/07/09 11:06:17;;;;;;;;;3.00;3.00;;;;;-144.77;100.00;61770.03;4986315;28;8916;-80
2021/07/09 11:08:45;;;;;;;;;5.75;4.25;;;;;-144.77;100.00;61770.03;4998649;28;8809;-80
2021/07/09 11:11:18;;;;;;;;;5.25;5.25;;;;;-144.77;100.00;61770.03;4998726;28;8844;-80
2021/07/09 11:13:51;;;;;;;;;7.50;5.00;;;;;-144.77;100.00;61770.03;4998154;28;8814;-80